Terminal Aerodrome Forecast
Issued by NWS Topeka, KS

Home | Current Version | Previous Version | Graphics & Text | Print | Product List | Glossary On
Versions: 1 2 3 4 5 6 7 8 9 10 11 12 13 14 15 16 17 18 19 20 21 22 23 24 25 26 27 28
601
FTUS43 KTOP 240538
TAFTOP
TAF
KTOP 240538Z 2406/2506 30010G16KT P6SM VCTS BKN025CB BKN200
     FM240700 20008KT P6SM SCT200 WS020/21045KT
     FM241300 21012KT P6SM FEW040 BKN150
     FM242100 22008KT P6SM VCTS BKN040CB=

USA.gov is the U.S. government's official web portal to all federal, state and local government web resources and services.